Погода Вентспилсна неделю

Вентспилсский район, Латвия

18 - 24 июля
  • 18июля
    Сегодня
    +17°
    +21°
    Практически безоблачно
    ВремяПогодаТемператураВлажностьДавлениеВетер, м/сВероятность осадков
    00:00Ясно и безоблачно+16°C88 %761 мм3.2 м/с2 %
    03:00Практически безоблачно+16°C87 %761 мм3.7 м/с1 %
    06:00Небольшая облачность+16°C87 %761 мм3.4 м/с2 %
    09:00Ясно и безоблачно+19°C84 %761 мм4.9 м/с7 %
    12:00Практически безоблачно+21°C80 %761 мм6.3 м/с18 %
    15:00Практически безоблачно+20°C82 %762 мм6.1 м/с7 %
    18:00Практически безоблачно+20°C81 %762 мм5.9 м/с2 %
    21:00Практически безоблачно+19°C85 %761 мм4.7 м/с2 %
  • 19июля
    Пятница
    +15°
    +21°
    Ясно и безоблачно
    ВремяПогодаТемператураВлажностьДавлениеВетер, м/сВероятность осадков
    00:00Практически безоблачно+17°C85 %761 мм2.9 м/с2 %
    03:00Практически безоблачно+18°C83 %761 мм3.4 м/с2 %
    06:00Практически безоблачно+17°C84 %762 мм3.2 м/с2 %
    09:00Ясно и безоблачно+19°C83 %762 мм4.5 м/с2 %
    12:00Ясно и безоблачно+20°C82 %762 мм4.9 м/с2 %
    15:00Ясно и безоблачно+20°C81 %762 мм4.4 м/с2 %
    18:00Ясно и безоблачно+20°C80 %762 мм4.6 м/с2 %
    21:00Практически безоблачно+19°C85 %761 мм2.3 м/с2 %
  • 20июля
    Суббота
    +15°
    +22°
    Ясно и безоблачно
    ВремяПогодаТемператураВлажностьДавлениеВетер, м/сВероятность осадков
    00:00Ясно и безоблачно+16°C89 %761 мм1.8 м/с2 %
    03:00Ясно и безоблачно+17°C90 %760 мм1.6 м/с2 %
    06:00Ясно и безоблачно+17°C91 %760 мм1.1 м/с2 %
    09:00Ясно и безоблачно+20°C84 %759 мм1.7 м/с2 %
    12:00Ясно и безоблачно+22°C81 %759 мм3.3 м/с4 %
    15:00Ясно и безоблачно+22°C83 %759 мм3.7 м/с13 %
    18:00Ясно и безоблачно+21°C86 %759 мм4.0 м/с4 %
    21:00Ясно и безоблачно+19°C90 %758 мм2.0 м/с2 %
  • 21июля
    Воскресенье
    +15°
    +22°
    Практически безоблачно
    ВремяПогодаТемператураВлажностьДавлениеВетер, м/сВероятность осадков
    00:00Ясно и безоблачно+16°C86 %758 мм1.1 м/с2 %
    03:00Ясно и безоблачно+15°C89 %758 мм1.0 м/с3 %
    06:00Небольшая облачность+16°C88 %758 мм1.0 м/с3 %
    09:00Практически безоблачно+19°C84 %757 мм2.0 м/с6 %
    12:00Практически безоблачно+21°C82 %758 мм3.4 м/с18 %
    15:00Практически безоблачно+22°C82 %758 мм3.3 м/с20 %
    18:00Практически безоблачно+22°C82 %757 мм3.7 м/с11 %
    21:00Ясно и безоблачно+20°C84 %757 мм1.8 м/с2 %
  • 22июля
    Понедельник
    +16°
    +24°
    Практически безоблачно
    ВремяПогодаТемператураВлажностьДавлениеВетер, м/сВероятность осадков
    00:00Ясно и безоблачно+16°C91 %757 мм0.2 м/с2 %
    03:00Ясно и безоблачно+16°C92 %757 мм0.1 м/с2 %
    06:00Ясно и безоблачно+16°C96 %757 мм0.0 м/с2 %
    09:00Ясно и безоблачно+20°C89 %757 мм0.3 м/с2 %
    12:00Практически безоблачно+23°C82 %757 мм2.5 м/с26 %
    15:00Практически безоблачно+24°C86 %757 мм2.6 м/с41 %
    18:00Практически безоблачно+24°C79 %756 мм2.8 м/с24 %
    21:00Ясно и безоблачно+22°C84 %756 мм0.9 м/с8 %
Мы используем cookies
Соглашаюсь